Time;durP1;ratioP1;P1;durP2;ratioP2;P2;SDS_P1;SDS_P2;PMS_P1;PMS_P2;Temp;Humidity;BMP_temperature;BMP_pressure;BME280_temperature;BME280_humidity;BME280_pressure;Samples;Min_cycle;Max_cycle;Signal;HPM_P1;HPM_P2
2022/09/15 00:01:03;;;;;;;8.05;4.80;;;14.40;99.90;;;;;;5050554;28;20919;-79
2022/09/15 00:03:30;;;;;;;8.27;4.70;;;14.40;99.90;;;;;;5050243;28;20379;-79
2022/09/15 00:05:57;;;;;;;5.70;3.83;;;14.70;99.90;;;;;;5036421;28;20399;-80
2022/09/15 00:08:25;;;;;;;6.65;3.83;;;14.80;99.90;;;;;;5050556;28;20372;-78
2022/09/15 00:10:57;;;;;;;4.87;3.93;;;14.70;99.90;;;;;;5050161;28;20474;-80
2022/09/15 00:13:25;;;;;;;6.43;3.50;;;14.70;99.90;;;;;;5050718;28;20380;-79
2022/09/15 00:15:52;;;;;;;4.63;3.35;;;14.80;99.90;;;;;;5050788;28;20925;-78
2022/09/15 00:18:20;;;;;;;5.88;3.80;;;14.90;99.90;;;;;;5050799;28;20954;-79
2022/09/15 00:20:47;;;;;;;5.15;3.88;;;15.20;99.90;;;;;;5055511;28;20363;-79
2022/09/15 00:23:16;;;;;;;6.65;4.25;;;15.20;99.90;;;;;;5055914;28;20394;-79
2022/09/15 00:25:49;;;;;;;7.72;4.60;;;15.40;99.90;;;;;;5052361;28;20418;-79
2022/09/15 00:28:19;;;;;;;8.38;4.80;;;15.50;99.90;;;;;;5051542;28;20367;-79
2022/09/15 00:30:53;;;;;;;8.53;4.63;;;15.50;99.90;;;;;;5050791;28;20396;-79
2022/09/15 00:33:22;;;;;;;5.05;4.10;;;15.60;99.90;;;;;;5050574;28;20803;-79
2022/09/15 00:35:51;;;;;;;6.43;3.80;;;15.50;99.90;;;;;;5064555;28;20378;-79
2022/09/15 00:38:18;;;;;;;5.50;4.00;;;15.60;99.90;;;;;;5036594;28;20396;-79
2022/09/15 00:40:51;;;;;;;6.32;4.00;;;15.50;99.90;;;;;;5050382;28;20944;-80
2022/09/15 00:43:21;;;;;;;5.47;4.20;;;15.30;99.90;;;;;;5050172;28;20360;-79
2022/09/15 00:45:49;;;;;;;6.13;4.35;;;15.20;99.90;;;;;;5050420;28;20839;-79
2022/09/15 00:48:20;;;;;;;6.07;4.30;;;15.20;99.90;;;;;;5050089;28;20918;-79
2022/09/15 00:50:53;;;;;;;7.93;5.03;;;15.20;99.90;;;;;;5050147;28;20360;-79
2022/09/15 00:53:22;;;;;;;6.20;4.90;;;15.20;99.90;;;;;;5050114;28;20459;-79
2022/09/15 00:55:51;;;;;;;7.70;5.45;;;15.10;99.90;;;;;;5050341;28;20363;-79
2022/09/15 00:58:24;;;;;;;6.80;5.05;;;15.00;99.90;;;;;;5049911;28;20423;-79
2022/09/15 01:00:59;;;;;;;6.55;4.60;;;14.80;99.90;;;;;;5050045;28;20364;-79
2022/09/15 01:03:29;;;;;;;6.40;5.68;;;14.80;99.90;;;;;;5065914;28;20377;-80
2022/09/15 01:06:05;;;;;;;7.90;6.45;;;15.00;99.90;;;;;;5067810;28;20396;-80
2022/09/15 01:08:59;;;;;;;7.80;7.00;;;15.10;99.90;;;;;;5053737;28;20383;-80
2022/09/15 01:11:26;;;;;;;7.57;5.25;;;15.20;99.90;;;;;;5053588;28;20368;-78
2022/09/15 01:13:53;;;;;;;7.60;5.78;;;15.10;99.90;;;;;;5053424;28;20383;-79
2022/09/15 01:16:24;;;;;;;8.30;6.35;;;15.20;99.90;;;;;;5053978;28;20372;-79
2022/09/15 01:19:32;;;;;;;7.47;5.75;;;15.20;99.90;;;;;;5053551;28;20866;-79
2022/09/15 01:22:27;;;;;;;7.47;5.50;;;15.30;99.90;;;;;;5053408;28;20385;-79
2022/09/15 01:25:14;;;;;;;8.00;5.22;;;15.20;99.90;;;;;;5041344;28;20360;-79
2022/09/15 01:27:50;;;;;;;8.05;4.93;;;15.30;99.90;;;;;;5056116;28;20381;-79
2022/09/15 01:30:23;;;;;;;4.63;4.10;;;15.40;99.90;;;;;;5062925;28;20364;-79
2022/09/15 01:33:16;;;;;;;6.15;4.60;;;15.50;99.90;;;;;;5056353;28;20802;-79
2022/09/15 01:36:17;;;;;;;5.90;4.50;;;15.60;99.90;;;;;;5042048;28;20758;-80
2022/09/15 01:39:04;;;;;;;7.97;4.20;;;15.50;99.90;;;;;;5053047;28;20391;-79
2022/09/15 01:41:41;;;;;;;6.18;4.28;;;15.90;99.90;;;;;;5052334;28;20871;-80
2022/09/15 01:44:22;;;;;;;6.67;4.03;;;16.30;99.90;;;;;;5052775;28;20376;-80
2022/09/15 01:46:55;;;;;;;3.83;3.25;;;16.90;99.90;;;;;;5052961;28;20738;-79
2022/09/15 01:49:37;;;;;;;4.75;3.00;;;17.20;99.90;;;;;;5035362;28;20372;-79
2022/09/15 01:52:06;;;;;;;4.17;2.60;;;17.30;99.90;;;;;;5052811;28;20376;-80
2022/09/15 01:54:39;;;;;;;4.45;2.35;;;17.30;99.90;;;;;;5052545;28;20368;-79
2022/09/15 01:57:06;;;;;;;3.65;2.35;;;17.10;99.90;;;;;;5052433;28;20387;-80
2022/09/15 01:59:34;;;;;;;4.28;2.40;;;17.10;99.90;;;;;;5052845;28;20820;-79
2022/09/15 02:02:11;;;;;;;3.90;2.20;;;17.00;99.90;;;;;;5052356;28;20370;-80
2022/09/15 02:04:49;;;;;;;3.35;2.10;;;17.00;99.90;;;;;;5052518;28;20372;-80
2022/09/15 02:07:34;;;;;;;4.22;2.10;;;17.10;99.90;;;;;;5052369;28;20373;-80
2022/09/15 02:10:14;;;;;;;3.20;1.90;;;17.10;99.90;;;;;;5034408;28;20709;-80
2022/09/15 02:13:02;;;;;;;3.92;1.90;;;17.10;99.90;;;;;;5052223;28;20385;-80
2022/09/15 02:15:36;;;;;;;3.33;1.80;;;17.10;99.90;;;;;;5051667;28;20415;-81
2022/09/15 02:18:07;;;;;;;3.95;2.00;;;17.20;99.90;;;;;;5052316;28;20907;-79
2022/09/15 02:20:49;;;;;;;4.03;1.92;;;17.10;99.90;;;;;;5052317;28;20383;-81
2022/09/15 02:23:25;;;;;;;2.90;2.07;;;16.90;99.90;;;;;;5063456;28;20859;-79
2022/09/15 02:26:03;;;;;;;2.95;1.90;;;16.80;99.90;;;;;;5051939;28;20368;-79
2022/09/15 02:28:36;;;;;;;2.70;1.80;;;16.90;99.90;;;;;;5052078;28;20408;-79
2022/09/15 02:31:05;;;;;;;3.90;1.90;;;16.90;99.90;;;;;;5034060;28;20394;-80
2022/09/15 02:33:37;;;;;;;3.22;1.90;;;17.00;99.90;;;;;;5052053;28;20869;-80
2022/09/15 02:36:06;;;;;;;2.90;2.10;;;16.90;99.90;;;;;;5051931;28;20382;-80
2022/09/15 02:38:38;;;;;;;3.17;2.10;;;16.70;99.90;;;;;;5051819;28;20403;-79
2022/09/15 02:41:05;;;;;;;3.60;2.30;;;16.60;99.90;;;;;;5051594;28;20391;-80
2022/09/15 02:43:33;;;;;;;2.90;2.30;;;16.60;99.90;;;;;;5051837;28;20766;-80
2022/09/15 02:46:00;;;;;;;3.55;2.60;;;16.50;99.90;;;;;;5033567;28;20509;-81
2022/09/15 02:48:27;;;;;;;2.73;2.47;;;16.20;99.90;;;;;;5051330;28;20785;-80
2022/09/15 02:50:54;;;;;;;2.75;2.35;;;16.10;99.90;;;;;;5051546;28;20422;-81
2022/09/15 02:53:21;;;;;;;3.35;2.83;;;16.20;99.90;;;;;;5051574;28;20378;-81
2022/09/15 02:55:49;;;;;;;3.72;2.40;;;16.20;99.90;;;;;;5051443;28;20368;-80
2022/09/15 02:58:16;;;;;;;3.95;2.53;;;16.20;99.90;;;;;;5051245;28;20627;-81
2022/09/15 03:00:43;;;;;;;2.70;2.47;;;16.00;99.90;;;;;;5055833;28;20464;-80
2022/09/15 03:03:10;;;;;;;2.95;2.30;;;15.80;99.90;;;;;;5049328;28;20365;-80
2022/09/15 03:05:37;;;;;;;3.08;2.22;;;15.60;99.90;;;;;;5048381;28;20399;-80
2022/09/15 03:08:04;;;;;;;3.28;2.33;;;15.60;99.90;;;;;;5051400;28;20769;-80
2022/09/15 03:10:32;;;;;;;3.03;2.27;;;15.60;99.90;;;;;;5051193;28;20380;-80
2022/09/15 03:12:59;;;;;;;3.13;2.33;;;15.60;99.90;;;;;;5051184;28;20831;-80
2022/09/15 03:15:27;;;;;;;2.33;2.00;;;15.60;99.90;;;;;;5051452;28;20403;-80
2022/09/15 03:17:54;;;;;;;2.85;2.10;;;15.60;99.90;;;;;;5037410;28;20386;-80
2022/09/15 03:20:24;;;;;;;3.17;1.90;;;15.40;99.90;;;;;;5051189;28;20379;-81
2022/09/15 03:22:51;;;;;;;4.03;2.00;;;15.20;99.90;;;;;;5050960;28;20375;-81
2022/09/15 03:25:19;;;;;;;3.28;2.00;;;15.10;99.90;;;;;;5051247;28;20422;-81
2022/09/15 03:27:47;;;;;;;4.47;2.10;;;14.90;99.90;;;;;;5019887;28;20408;-80
2022/09/15 03:30:14;;;;;;;3.08;2.00;;;14.90;99.90;;;;;;5066163;28;20378;-80
2022/09/15 03:32:41;;;;;;;2.92;1.95;;;14.80;99.90;;;;;;5055987;28;20380;-80
2022/09/15 03:35:09;;;;;;;2.55;2.00;;;14.70;99.90;;;;;;5056317;28;20800;-80
2022/09/15 03:37:36;;;;;;;2.38;1.90;;;14.70;99.90;;;;;;5054274;28;20406;-79
2022/09/15 03:40:04;;;;;;;3.20;2.20;;;14.50;99.90;;;;;;5051258;28;20404;-79
2022/09/15 03:42:31;;;;;;;5.68;2.53;;;14.40;99.90;;;;;;5051117;28;20407;-79
2022/09/15 03:44:58;;;;;;;5.50;2.75;;;14.20;99.90;;;;;;5050622;28;20866;-77
2022/09/15 03:47:25;;;;;;;3.80;2.60;;;14.10;99.90;;;;;;5050851;28;20407;-79
2022/09/15 03:49:52;;;;;;;4.27;2.40;;;14.10;99.90;;;;;;5050748;28;20399;-78
2022/09/15 03:52:21;;;;;;;4.80;2.30;;;13.90;99.90;;;;;;5050533;28;20873;-79
2022/09/15 03:54:48;;;;;;;3.67;2.35;;;13.80;99.90;;;;;;5050296;28;20871;-80
2022/09/15 03:57:15;;;;;;;3.63;2.40;;;13.70;99.90;;;;;;5050499;28;20381;-78
2022/09/15 03:59:42;;;;;;;3.60;2.50;;;13.60;99.90;;;;;;5050502;28;20384;-80
2022/09/15 04:02:10;;;;;;;4.75;3.10;;;13.60;99.90;;;;;;5032480;28;20407;-79
2022/09/15 04:04:37;;;;;;;6.18;3.35;;;13.50;99.90;;;;;;5050264;28;20373;-75
2022/09/15 04:07:04;;;;;;;5.47;3.20;;;13.50;99.90;;;;;;5050729;28;20360;-78
2022/09/15 04:09:31;;;;;;;4.37;3.50;;;13.50;99.90;;;;;;5050106;28;20380;-80
2022/09/15 04:11:58;;;;;;;5.00;3.42;;;13.50;99.90;;;;;;5050153;28;20426;-80
2022/09/15 04:14:26;;;;;;;4.63;3.85;;;13.50;99.90;;;;;;5045646;28;20465;-77
2022/09/15 04:16:53;;;;;;;6.47;3.70;;;13.50;99.90;;;;;;5039217;28;20515;-79
2022/09/15 04:19:20;;;;;;;4.90;3.40;;;13.50;99.90;;;;;;5048112;28;20395;-76
2022/09/15 04:21:47;;;;;;;5.13;3.60;;;13.50;99.90;;;;;;5050032;28;20854;-78
2022/09/15 04:24:14;;;;;;;6.77;3.40;;;13.40;99.90;;;;;;5049607;28;20894;-77
2022/09/15 04:26:41;;;;;;;4.25;3.05;;;13.40;99.90;;;;;;5050215;28;20383;-77
2022/09/15 04:29:15;;;;;;;7.82;3.22;;;13.40;99.90;;;;;;5049930;28;20863;-79
2022/09/15 04:31:42;;;;;;;4.45;3.47;;;13.40;99.90;;;;;;5049974;28;20372;-78
2022/09/15 04:34:09;;;;;;;7.60;6.03;;;13.40;99.90;;;;;;5049981;28;20378;-78
2022/09/15 04:36:37;;;;;;;9.63;8.63;;;13.40;99.90;;;;;;5050043;28;20391;-78
2022/09/15 04:39:05;;;;;;;11.63;10.43;;;13.40;99.90;;;;;;5053930;28;20402;-78
2022/09/15 04:41:35;;;;;;;8.50;7.60;;;13.40;99.90;;;;;;5050781;28;20410;-79
2022/09/15 04:44:02;;;;;;;8.02;5.75;;;13.40;99.90;;;;;;5053318;28;20478;-78
2022/09/15 04:46:29;;;;;;;6.07;3.67;;;13.30;99.90;;;;;;5057387;28;20388;-78
2022/09/15 04:48:57;;;;;;;6.03;3.72;;;13.30;99.90;;;;;;5064004;28;20379;-77
2022/09/15 04:51:25;;;;;;;3.85;3.35;;;13.30;99.90;;;;;;5053955;28;21044;-78
2022/09/15 04:53:53;;;;;;;4.07;3.45;;;13.30;99.90;;;;;;5035637;28;20387;-77
2022/09/15 04:56:25;;;;;;;4.27;3.30;;;13.40;99.90;;;;;;5053490;28;20613;-78
2022/09/15 04:58:55;;;;;;;5.40;3.50;;;13.40;99.90;;;;;;5053380;28;20388;-78
2022/09/15 05:01:24;;;;;;;6.93;4.95;;;13.40;99.90;;;;;;5053564;28;20398;-79
2022/09/15 05:03:53;;;;;;;8.35;5.53;;;13.60;99.90;;;;;;5053114;28;20364;-78
2022/09/15 05:06:27;;;;;;;7.20;4.72;;;13.80;99.90;;;;;;5053758;28;20364;-80
2022/09/15 05:08:56;;;;;;;9.68;5.10;;;14.20;99.90;;;;;;5034999;28;20410;-76
2022/09/15 05:11:24;;;;;;;8.02;4.22;;;14.90;99.90;;;;;;5053518;28;20372;-77
2022/09/15 05:13:51;;;;;;;9.15;4.43;;;15.10;99.90;;;;;;5063978;28;20379;-78
2022/09/15 05:16:23;;;;;;;5.23;3.43;;;15.20;99.90;;;;;;5073375;28;20381;-78
2022/09/15 05:18:53;;;;;;;5.10;2.90;;;15.50;99.90;;;;;;5056156;28;20403;-77
2022/09/15 05:21:22;;;;;;;4.43;2.60;;;15.50;99.90;;;;;;5032366;28;20395;-76
2022/09/15 05:23:54;;;;;;;3.67;2.10;;;15.50;99.90;;;;;;5066104;28;20470;-78
2022/09/15 05:26:25;;;;;;;3.10;2.00;;;15.50;99.90;;;;;;5053086;28;20395;-78
2022/09/15 05:28:52;;;;;;;2.63;2.10;;;15.60;99.90;;;;;;5053102;28;20451;-77
2022/09/15 05:31:25;;;;;;;2.60;1.90;;;15.60;99.90;;;;;;5051447;28;20383;-77
2022/09/15 05:33:53;;;;;;;2.92;1.80;;;15.70;99.90;;;;;;5049957;28;20387;-78
2022/09/15 05:36:24;;;;;;;2.45;1.83;;;15.60;99.90;;;;;;5067223;28;20376;-77
2022/09/15 05:38:55;;;;;;;3.23;1.80;;;15.60;99.90;;;;;;5052676;28;20403;-78
2022/09/15 05:41:23;;;;;;;2.10;1.90;;;15.60;99.90;;;;;;5052294;28;20473;-78
2022/09/15 05:43:51;;;;;;;2.58;1.90;;;15.30;99.90;;;;;;5052592;28;20372;-78
2022/09/15 05:46:19;;;;;;;2.30;2.10;;;14.80;99.90;;;;;;5049457;28;20462;-79
2022/09/15 05:48:46;;;;;;;2.10;1.90;;;14.60;99.90;;;;;;5052587;28;20390;-78
2022/09/15 05:51:14;;;;;;;3.42;1.98;;;14.50;99.90;;;;;;5051974;28;20376;-78
2022/09/15 05:53:41;;;;;;;2.78;2.20;;;14.30;99.90;;;;;;5052836;28;20457;-78
2022/09/15 05:56:12;;;;;;;2.30;2.10;;;14.30;99.90;;;;;;5035255;28;20388;-78
2022/09/15 05:58:40;;;;;;;3.47;2.53;;;14.20;99.90;;;;;;5053611;28;20887;-77
2022/09/15 06:01:19;;;;;;;3.42;2.50;;;14.10;99.90;;;;;;5045133;28;20859;-79
2022/09/15 06:03:47;;;;;;;2.92;2.50;;;14.10;99.90;;;;;;5053266;28;20410;-77
2022/09/15 06:06:16;;;;;;;2.57;2.30;;;14.10;99.90;;;;;;5060676;28;20406;-83
2022/09/15 06:08:47;;;;;;;3.70;2.50;;;14.20;99.90;;;;;;5060230;28;20712;-81
2022/09/15 06:11:17;;;;;;;2.60;2.20;;;14.20;99.90;;;;;;5062068;28;20371;-77
2022/09/15 06:13:46;;;;;;;3.17;2.53;;;14.30;99.90;;;;;;5072758;28;20368;-80
2022/09/15 06:16:19;;;;;;;2.75;2.50;;;14.40;99.90;;;;;;5070203;28;20380;-81
2022/09/15 06:18:48;;;;;;;2.83;2.47;;;14.40;99.90;;;;;;5069143;28;20395;-83
2022/09/15 06:21:20;;;;;;;2.97;2.30;;;14.40;99.90;;;;;;5059554;28;20375;-80
2022/09/15 06:23:55;;;;;;;3.65;2.50;;;14.50;99.90;;;;;;5066992;28;20383;-82
2022/09/15 06:26:23;;;;;;;2.40;2.20;;;14.60;99.90;;;;;;5044790;28;20372;-82
2022/09/15 06:28:52;;;;;;;3.65;2.42;;;14.40;99.90;;;;;;5055585;28;20379;-78
2022/09/15 06:31:20;;;;;;;4.00;2.70;;;14.50;99.90;;;;;;5053361;28;20387;-79
2022/09/15 06:33:50;;;;;;;3.58;2.97;;;14.50;99.90;;;;;;5055273;28;20403;-78
2022/09/15 06:36:18;;;;;;;3.65;3.17;;;14.40;99.90;;;;;;5056919;28;20496;-80
2022/09/15 06:38:46;;;;;;;4.50;4.00;;;14.50;99.90;;;;;;5054119;28;20396;-82
2022/09/15 06:41:14;;;;;;;5.47;4.50;;;14.40;99.90;;;;;;5052615;28;20511;-78
2022/09/15 06:43:41;;;;;;;7.25;5.43;;;14.30;99.90;;;;;;5051588;28;20418;-79
2022/09/15 06:46:27;;;;;;;5.17;4.67;;;14.20;99.90;;;;;;5051966;28;20375;-80
2022/09/15 06:48:55;;;;;;;5.18;4.65;;;14.20;99.90;;;;;;5051980;28;20375;-80
2022/09/15 06:51:27;;;;;;;6.50;5.45;;;14.20;99.90;;;;;;5051647;28;20387;-81
2022/09/15 06:53:54;;;;;;;5.97;5.00;;;14.20;99.90;;;;;;5034106;28;20383;-81
2022/09/15 06:56:22;;;;;;;9.20;4.72;;;14.10;99.90;;;;;;5051511;28;20383;-84
2022/09/15 06:58:50;;;;;;;5.00;3.85;;;13.70;99.90;;;;;;5050315;28;20449;-81
2022/09/15 07:01:27;;;;;;;6.60;4.25;;;14.00;99.90;;;;;;5050587;28;20434;-84
2022/09/15 07:03:55;;;;;;;4.68;3.55;;;14.00;99.90;;;;;;5050460;28;20909;-85
2022/09/15 07:06:23;;;;;;;6.25;5.43;;;14.10;99.90;;;;;;5050892;28;20435;-86
2022/09/15 07:08:52;;;;;;;5.43;4.93;;;14.10;99.90;;;;;;5051126;28;20462;-86
2022/09/15 07:11:20;;;;;;;5.53;4.53;;;14.10;99.90;;;;;;5050001;28;20465;-81
2022/09/15 07:13:51;;;;;;;6.43;5.50;;;14.10;99.90;;;;;;5050471;28;20370;-80
2022/09/15 07:16:19;;;;;;;6.97;6.28;;;14.10;99.90;;;;;;5050517;28;20376;-81
2022/09/15 07:18:47;;;;;;;8.23;7.43;;;14.00;99.90;;;;;;5051212;28;20736;-81
2022/09/15 07:21:17;;;;;;;16.10;13.85;;;14.00;99.90;;;;;;5050187;28;20384;-81
2022/09/15 07:23:44;;;;;;;11.18;9.88;;;14.00;99.90;;;;;;5050504;28;20383;-81
2022/09/15 07:26:24;;;;;;;11.13;8.68;;;14.00;99.90;;;;;;5050590;28;20433;-84
2022/09/15 07:28:59;;;;;;;7.72;7.03;;;13.90;99.90;;;;;;5046166;28;20385;-80
2022/09/15 07:31:29;;;;;;;6.43;5.70;;;13.80;99.90;;;;;;5050759;28;20376;-81
2022/09/15 07:34:01;;;;;;;6.80;5.90;;;13.70;99.90;;;;;;5051805;28;20447;-80
2022/09/15 07:36:29;;;;;;;8.73;7.43;;;13.70;99.90;;;;;;5053745;28;20384;-81
2022/09/15 07:38:56;;;;;;;7.90;6.90;;;13.70;99.90;;;;;;5036725;28;20409;-84
2022/09/15 07:41:29;;;;;;;7.73;6.80;;;13.50;99.90;;;;;;5036490;28;20481;-80
2022/09/15 07:43:58;;;;;;;7.90;7.03;;;13.50;99.90;;;;;;5056174;28;20383;-83
2022/09/15 07:46:29;;;;;;;7.90;7.15;;;13.60;99.90;;;;;;5053798;28;20411;-84
2022/09/15 07:48:56;;;;;;;8.27;6.77;;;13.50;99.90;;;;;;5057457;28;20435;-80
2022/09/15 07:51:24;;;;;;;8.93;7.75;;;13.50;99.90;;;;;;5055435;28;20379;-80
2022/09/15 07:53:52;;;;;;;9.98;8.27;;;13.50;99.90;;;;;;5051575;28;20384;-82
2022/09/15 07:56:20;;;;;;;10.25;8.70;;;13.50;99.90;;;;;;5052095;28;20414;-79
2022/09/15 07:58:48;;;;;;;11.48;9.73;;;13.50;99.90;;;;;;5052147;28;20887;-78
2022/09/15 08:01:16;;;;;;;10.30;9.20;;;13.50;99.90;;;;;;5066142;28;20370;-79
2022/09/15 08:03:47;;;;;;;13.43;10.43;;;13.50;99.90;;;;;;5060787;28;20387;-80
2022/09/15 08:06:17;;;;;;;12.15;10.32;;;13.50;99.90;;;;;;5058349;28;20391;-80
2022/09/15 08:08:46;;;;;;;10.40;9.40;;;13.40;99.90;;;;;;5053775;28;20380;-80
2022/09/15 08:11:17;;;;;;;9.70;8.70;;;13.40;99.90;;;;;;5056684;28;20851;-79
2022/09/15 08:13:45;;;;;;;10.27;9.20;;;13.40;99.90;;;;;;5051653;28;20383;-79
2022/09/15 08:16:18;;;;;;;9.05;8.15;;;13.40;99.90;;;;;;5043800;28;20375;-79
2022/09/15 08:18:46;;;;;;;9.90;8.15;;;13.40;99.90;;;;;;5059709;28;20392;-80
2022/09/15 08:21:22;;;;;;;9.40;8.38;;;13.30;99.90;;;;;;5060041;28;20384;-79
2022/09/15 08:23:56;;;;;;;9.20;8.30;;;13.30;99.90;;;;;;5058833;28;20490;-80
2022/09/15 08:26:26;;;;;;;10.45;8.88;;;13.40;99.90;;;;;;5038918;28;20380;-80
2022/09/15 08:28:54;;;;;;;9.75;7.68;;;13.40;99.90;;;;;;5039837;28;20376;-79
2022/09/15 08:31:22;;;;;;;9.80;8.85;;;13.30;99.90;;;;;;5035565;28;20391;-80
2022/09/15 08:33:52;;;;;;;10.90;9.80;;;13.30;99.90;;;;;;5055067;28;20758;-80
2022/09/15 08:36:20;;;;;;;11.45;10.35;;;13.20;99.90;;;;;;5054726;28;20885;-79
2022/09/15 08:38:48;;;;;;;12.47;10.97;;;13.20;99.90;;;;;;5052025;28;20434;-79
2022/09/15 08:41:37;;;;;;;15.80;13.20;;;13.20;99.90;;;;;;5056455;28;20459;-81
2022/09/15 08:44:14;;;;;;;30.80;25.10;;;13.30;99.90;;;;;;5069847;28;20363;-80
2022/09/15 08:47:17;;;;;;;30.60;27.20;;;13.20;99.90;;;;;;5047962;28;20387;-83
2022/09/15 08:50:21;;;;;;;32.53;26.38;;;13.20;99.90;;;;;;5051695;28;20437;-84
2022/09/15 08:52:59;;;;;;;26.43;23.63;;;13.10;99.90;;;;;;5055746;28;20418;-81
2022/09/15 08:55:56;;;;;;;24.17;21.57;;;13.20;99.90;;;;;;5055616;28;20436;-82
2022/09/15 08:58:29;;;;;;;23.63;21.13;;;13.20;99.90;;;;;;5054756;28;20434;-79
2022/09/15 09:01:21;;;;;;;20.65;18.45;;;13.20;99.90;;;;;;5042439;28;20368;-90
2022/09/15 09:04:15;;;;;;;18.77;16.88;;;13.20;99.90;;;;;;5055961;28;20368;-86
2022/09/15 09:06:49;;;;;;;18.75;16.85;;;13.20;99.90;;;;;;5055004;28;20728;-81
2022/09/15 09:09:19;;;;;;;21.70;18.60;;;13.20;99.90;;;;;;5054505;28;20385;-82
2022/09/15 09:11:47;;;;;;;21.77;18.97;;;13.20;99.90;;;;;;5056123;28;20464;-83
2022/09/15 09:14:48;;;;;;;19.05;17.05;;;13.20;99.90;;;;;;5057806;28;20382;-86
2022/09/15 09:17:24;;;;;;;16.88;15.07;;;13.30;99.90;;;;;;5057112;28;20376;-85
2022/09/15 09:20:12;;;;;;;17.45;15.75;;;13.30;99.90;;;;;;5056440;28;20390;-82
2022/09/15 09:22:43;;;;;;;16.27;14.57;;;13.30;99.90;;;;;;5055771;28;20388;-79
2022/09/15 09:25:14;;;;;;;16.83;15.30;;;13.30;99.90;;;;;;5055228;28;20415;-78
2022/09/15 09:27:42;;;;;;;16.45;14.88;;;13.20;99.90;;;;;;5037157;28;20407;-78
2022/09/15 09:30:21;;;;;;;16.05;14.55;;;13.20;99.90;;;;;;5055173;28;20388;-81
2022/09/15 09:33:14;;;;;;;17.40;15.80;;;13.30;99.90;;;;;;5035918;28;20391;-82
2022/09/15 09:35:51;;;;;;;17.98;16.25;;;13.20;99.90;;;;;;5053991;28;20380;-79
2022/09/15 09:38:40;;;;;;;17.30;15.70;;;13.20;99.90;;;;;;5054890;28;20855;-81
2022/09/15 09:41:16;;;;;;;17.45;15.68;;;13.30;99.90;;;;;;5055026;28;20415;-82
2022/09/15 09:43:45;;;;;;;20.55;18.55;;;13.30;99.90;;;;;;5054245;28;21276;-81
2022/09/15 09:46:16;;;;;;;21.55;19.25;;;13.40;99.90;;;;;;5053243;28;20804;-78
2022/09/15 09:49:12;;;;;;;21.60;19.50;;;13.30;99.90;;;;;;5053572;28;20422;-78
2022/09/15 09:52:01;;;;;;;23.50;21.00;;;13.30;99.90;;;;;;4992880;28;20381;-77
2022/09/15 09:54:30;;;;;;;25.87;23.37;;;13.20;99.90;;;;;;4990035;28;20451;-79
2022/09/15 09:57:16;;;;;;;24.80;22.30;;;13.20;99.90;;;;;;4994483;28;20424;-80
2022/09/15 09:59:46;;;;;;;29.52;26.40;;;13.20;99.90;;;;;;4986923;28;20487;-78
2022/09/15 10:02:14;;;;;;;27.33;24.70;;;13.20;99.90;;;;;;4996553;28;20380;-79
2022/09/15 10:04:50;;;;;;;29.17;26.10;;;13.20;99.90;;;;;;4993920;28;20471;-81
2022/09/15 10:07:26;;;;;;;28.73;25.73;;;13.20;99.90;;;;;;4994198;28;20743;-79
2022/09/15 10:10:00;;;;;;;32.65;28.95;;;13.20;99.90;;;;;;4996435;28;20393;-79
2022/09/15 10:12:34;;;;;;;33.55;29.38;;;13.20;99.90;;;;;;4997228;28;20388;-81
2022/09/15 10:15:07;;;;;;;38.78;34.40;;;13.30;99.90;;;;;;5000380;28;20392;-79
2022/09/15 10:17:39;;;;;;;47.80;36.72;;;13.20;99.90;;;;;;5000181;28;20396;-81
2022/09/15 10:20:27;;;;;;;49.40;38.50;;;13.20;99.90;;;;;;5001212;28;20393;-78
2022/09/15 10:23:14;;;;;;;33.58;29.55;;;13.20;99.90;;;;;;4998987;28;20377;-79
2022/09/15 10:25:41;;;;;;;32.33;26.23;;;13.20;99.90;;;;;;4932832;29;20481;-82
2022/09/15 10:28:21;;;;;;;29.58;26.38;;;13.10;99.90;;;;;;4956956;28;20431;-80
2022/09/15 10:31:10;;;;;;;28.58;25.55;;;13.10;99.90;;;;;;4993046;28;20417;-80
2022/09/15 10:33:40;;;;;;;36.05;24.27;;;13.20;99.90;;;;;;4992977;28;20972;-80
2022/09/15 10:36:28;;;;;;;30.90;25.23;;;13.10;99.90;;;;;;4974694;28;20397;-79
2022/09/15 10:39:16;;;;;;;32.92;24.98;;;13.10;99.90;;;;;;4987049;28;20460;-78
2022/09/15 10:42:03;;;;;;;31.73;27.23;;;13.00;99.90;;;;;;4980556;28;20404;-77
2022/09/15 10:44:53;;;;;;;30.42;26.80;;;13.00;99.90;;;;;;4993253;28;20435;-78
2022/09/15 10:47:57;;;;;;;30.15;26.92;;;12.90;99.90;;;;;;4976012;28;20520;-81
2022/09/15 10:50:41;;;;;;;32.97;29.63;;;13.00;99.90;;;;;;4979587;28;20412;-79
2022/09/15 10:53:52;;;;;;;31.48;27.90;;;13.00;99.90;;;;;;4992080;28;20388;-79
2022/09/15 10:56:31;;;;;;;37.60;29.45;;;12.90;99.90;;;;;;4935079;29;20510;-80
2022/09/15 10:59:20;;;;;;;29.75;26.52;;;12.90;99.90;;;;;;4934160;29;20461;-75
2022/09/15 11:02:10;;;;;;;34.58;29.60;;;12.90;99.90;;;;;;4940950;28;20527;-79
2022/09/15 11:05:12;;;;;;;34.17;28.60;;;12.80;99.90;;;;;;4990084;28;20904;-76
2022/09/15 11:07:53;;;;;;;34.67;28.88;;;12.90;99.90;;;;;;4914893;29;20902;-78
2022/09/15 11:10:42;;;;;;;37.08;29.23;;;12.90;99.90;;;;;;4912881;29;20403;-79
2022/09/15 11:13:38;;;;;;;35.58;28.30;;;12.90;99.90;;;;;;4913089;29;20407;-81
2022/09/15 11:16:27;;;;;;;40.72;30.10;;;12.80;99.90;;;;;;4912986;29;20395;-79
2022/09/15 11:19:15;;;;;;;39.05;31.15;;;12.80;99.90;;;;;;4912114;29;20444;-81
2022/09/15 11:21:47;;;;;;;40.85;30.65;;;12.80;99.90;;;;;;4912185;29;20481;-82
2022/09/15 11:24:36;;;;;;;36.70;30.48;;;12.70;99.90;;;;;;4914620;29;20379;-80
2022/09/15 11:27:41;;;;;;;39.95;30.38;;;12.70;99.90;;;;;;4901994;29;20397;-82
2022/09/15 11:30:38;;;;;;;42.47;33.40;;;12.80;99.90;;;;;;4903775;29;20387;-79
2022/09/15 11:33:27;;;;;;;46.45;35.47;;;12.80;99.90;;;;;;4929300;29;20904;-81
2022/09/15 11:36:14;;;;;;;45.15;33.83;;;12.80;99.90;;;;;;4950572;28;20467;-80
2022/09/15 11:38:47;;;;;;;41.88;31.67;;;12.90;99.90;;;;;;4950243;28;20403;-79
2022/09/15 11:41:35;;;;;;;40.33;32.40;;;12.90;99.90;;;;;;4949738;28;21025;-79
2022/09/15 11:44:42;;;;;;;40.20;32.55;;;12.70;99.90;;;;;;4946336;28;20387;-81
2022/09/15 11:47:18;;;;;;;43.38;32.78;;;12.70;99.90;;;;;;5023613;28;20499;-79
2022/09/15 11:49:48;;;;;;;43.30;32.65;;;12.80;99.90;;;;;;5029969;28;20389;-80
2022/09/15 11:52:23;;;;;;;47.13;34.55;;;12.70;99.90;;;;;;5030657;28;20861;-80
2022/09/15 11:55:23;;;;;;;50.08;35.53;;;12.70;99.90;;;;;;5028848;28;20393;-77
2022/09/15 11:58:05;;;;;;;45.95;34.10;;;12.70;99.90;;;;;;5025165;28;20877;-78
2022/09/15 12:00:35;;;;;;;44.22;32.72;;;12.80;99.90;;;;;;5029377;28;20862;-80
2022/09/15 12:03:37;;;;;;;34.20;28.40;;;12.80;99.90;;;;;;5029695;28;20390;-75
2022/09/15 12:06:26;;;;;;;32.87;27.47;;;12.80;99.90;;;;;;4969170;28;20381;-79
2022/09/15 12:09:01;;;;;;;33.05;28.83;;;12.70;99.90;;;;;;4969159;28;20393;-82
2022/09/15 12:11:31;;;;;;;35.22;29.85;;;12.70;99.90;;;;;;4969014;28;20391;-80
2022/09/15 12:13:59;;;;;;;35.55;30.02;;;12.70;99.90;;;;;;4968634;28;20397;-80
2022/09/15 12:16:27;;;;;;;33.22;28.55;;;12.70;99.90;;;;;;4969334;28;20818;-80
2022/09/15 12:19:20;;;;;;;32.85;28.27;;;12.60;99.90;;;;;;4968233;28;20406;-80
2022/09/15 12:22:32;;;;;;;36.72;30.88;;;12.60;99.90;;;;;;4969215;28;20499;-79
2022/09/15 12:25:13;;;;;;;40.20;30.50;;;12.60;99.90;;;;;;4957962;28;20790;-78
2022/09/15 12:27:40;;;;;;;34.70;29.23;;;12.60;99.90;;;;;;4968805;28;20414;-78
2022/09/15 12:30:40;;;;;;;50.22;35.05;;;12.60;99.90;;;;;;4968891;28;20390;-79
2022/09/15 12:33:48;;;;;;;42.92;37.28;;;12.60;99.90;;;;;;4968795;28;20453;-79
2022/09/15 12:36:33;;;;;;;47.42;40.63;;;12.60;99.90;;;;;;4930298;29;20401;-79
2022/09/15 12:39:02;;;;;;;46.92;35.67;;;12.60;99.90;;;;;;4930208;29;20413;-80
2022/09/15 12:41:30;;;;;;;47.97;35.25;;;12.70;99.90;;;;;;4951355;28;20408;-80
2022/09/15 12:44:04;;;;;;;49.90;36.35;;;12.70;99.90;;;;;;4988191;28;20408;-79
2022/09/15 12:46:31;;;;;;;48.50;36.55;;;12.70;99.90;;;;;;4988056;28;20880;-80
2022/09/15 12:49:02;;;;;;;48.47;36.00;;;12.70;99.90;;;;;;4972092;28;20412;-81
2022/09/15 12:51:29;;;;;;;44.67;34.65;;;12.70;99.90;;;;;;4988305;28;20447;-80
2022/09/15 12:54:03;;;;;;;41.38;32.75;;;12.70;99.90;;;;;;4988177;28;20397;-81
2022/09/15 12:56:34;;;;;;;40.03;30.88;;;12.70;99.90;;;;;;4987945;28;20442;-81
2022/09/15 12:59:06;;;;;;;32.63;28.52;;;12.70;99.90;;;;;;4990261;28;20400;-80
2022/09/15 13:01:49;;;;;;;30.87;26.23;;;12.70;99.90;;;;;;4991903;28;20373;-81
2022/09/15 13:05:00;;;;;;;31.15;27.50;;;12.60;99.90;;;;;;4991850;28;20373;-80
2022/09/15 13:07:52;;;;;;;27.70;24.83;;;12.60;99.90;;;;;;4973749;28;20394;-82
2022/09/15 13:10:35;;;;;;;26.98;24.08;;;12.60;99.90;;;;;;4957007;28;20390;-81
2022/09/15 13:13:22;;;;;;;28.95;25.58;;;12.50;99.90;;;;;;4979268;28;20380;-80
2022/09/15 13:15:52;;;;;;;26.42;23.73;;;12.50;99.90;;;;;;4991043;28;20527;-80
2022/09/15 13:18:20;;;;;;;29.95;26.23;;;12.50;99.90;;;;;;4991405;28;20388;-80